Time;durP1;ratioP1;P1;durP2;ratioP2;P2;SDS_P1;SDS_P2;PMS_P1;PMS_P2;Temp;Humidity;BMP_temperature;BMP_pressure;BME280_temperature;BME280_humidity;BME280_pressure;Samples;Min_cycle;Max_cycle;Signal;HPM_P1;HPM_P2
2023/02/02 00:01:11;;;;;;;;;;;;;;;26.03;31.06;95152.34;4916747;29;1447;-65
2023/02/02 00:03:37;;;;;;;;;;;;;;;26.04;31.27;95153.97;4919279;29;1431;-66
2023/02/02 00:06:03;;;;;;;;;;;;;;;26.05;31.08;95158.31;4924260;29;1371;-66
2023/02/02 00:08:28;;;;;;;;;;;;;;;26.05;31.53;95152.94;4929029;29;1368;-66
2023/02/02 00:10:53;;;;;;;;;;;;;;;26.10;31.32;95155.75;4935446;29;1296;-65
2023/02/02 00:13:18;;;;;;;;;;;;;;;26.11;31.42;95153.88;4918000;29;1972;-65
2023/02/02 00:15:44;;;;;;;;;;;;;;;26.10;31.38;95153.06;4911732;29;1348;-63
2023/02/02 00:18:09;;;;;;;;;;;;;;;26.09;31.60;95143.34;4946912;29;1483;-64
2023/02/02 00:20:34;;;;;;;;;;;;;;;26.08;32.04;95144.41;4917751;29;1580;-66
2023/02/02 00:23:00;;;;;;;;;;;;;;;26.12;31.62;95155.50;4935531;29;1444;-66
2023/02/02 00:25:25;;;;;;;;;;;;;;;26.12;31.44;95153.59;4930850;29;1199;-65
2023/02/02 00:27:50;;;;;;;;;;;;;;;26.12;31.43;95150.91;4916393;29;1395;-65
2023/02/02 00:30:15;;;;;;;;;;;;;;;26.13;31.58;95157.94;4932874;29;1446;-66
2023/02/02 00:32:41;;;;;;;;;;;;;;;26.12;31.51;95156.28;4935147;29;1910;-66
2023/02/02 00:35:07;;;;;;;;;;;;;;;26.13;31.61;95155.25;4916694;29;1360;-67
2023/02/02 00:37:33;;;;;;;;;;;;;;;26.13;31.87;95155.25;4929731;29;1470;-67
2023/02/02 00:39:58;;;;;;;;;;;;;;;26.13;31.71;95163.34;4930397;29;1256;-65
2023/02/02 00:42:23;;;;;;;;;;;;;;;26.13;31.88;95160.66;4918953;29;1529;-65
2023/02/02 00:47:33;;;;;;;;;;;;;;;26.13;31.79;95175.97;4916687;29;1368;-66
2023/02/02 00:49:58;;;;;;;;;;;;;;;26.12;31.72;95183.19;4906729;29;1079;-66
2023/02/02 00:52:23;;;;;;;;;;;;;;;26.12;31.71;95177.00;4917002;29;1435;-65
2023/02/02 00:54:48;;;;;;;;;;;;;;;26.13;31.98;95166.03;4934554;29;1978;-65
2023/02/02 00:57:14;;;;;;;;;;;;;;;26.13;31.96;95159.81;4936137;29;1316;-64
2023/02/02 00:59:39;;;;;;;;;;;;;;;26.13;31.93;95165.22;4936467;29;1434;-64
2023/02/02 01:02:05;;;;;;;;;;;;;;;26.14;31.99;95164.16;4912014;29;1292;-64
2023/02/02 01:04:30;;;;;;;;;;;;;;;26.15;32.10;95163.88;4920471;29;1388;-64
2023/02/02 01:06:55;;;;;;;;;;;;;;;26.15;32.12;95157.69;4934189;29;1380;-64
2023/02/02 01:09:21;;;;;;;;;;;;;;;26.15;31.88;95155.00;4919615;29;1424;-65
2023/02/02 01:11:46;;;;;;;;;;;;;;;26.16;31.91;95148.59;4914553;29;1439;-66
2023/02/02 01:14:11;;;;;;;;;;;;;;;26.15;31.81;95145.06;4928984;29;1903;-66
2023/02/02 01:16:37;;;;;;;;;;;;;;;26.18;31.95;95151.84;4919429;29;1471;-65
2023/02/02 01:19:02;;;;;;;;;;;;;;;26.17;32.15;95145.66;4924110;29;1443;-66
2023/02/02 01:21:27;;;;;;;;;;;;;;;26.18;32.07;95144.63;4937503;29;1450;-66
2023/02/02 01:23:53;;;;;;;;;;;;;;;26.20;32.05;95139.81;4913057;29;1588;-68
2023/02/02 01:26:18;;;;;;;;;;;;;;;26.22;32.26;95137.69;4934857;29;1432;-67
2023/02/02 01:28:45;;;;;;;;;;;;;;;26.24;32.29;95140.97;4937631;29;1597;-67
2023/02/02 01:31:11;;;;;;;;;;;;;;;26.29;32.07;95136.75;4938217;29;1419;-68
2023/02/02 01:33:36;;;;;;;;;;;;;;;26.25;32.24;95131.84;4936733;29;1911;-68
2023/02/02 01:36:03;;;;;;;;;;;;;;;26.30;32.32;95128.44;4926747;29;1245;-67
2023/02/02 01:38:29;;;;;;;;;;;;;;;26.27;32.39;95120.00;4924058;29;1469;-68
2023/02/02 01:40:55;;;;;;;;;;;;;;;26.29;32.16;95110.66;4918975;29;1415;-69
2023/02/02 01:43:29;;;;;;;;;;;;;;;26.32;32.51;95120.13;4925393;29;1419;-68
2023/02/02 01:45:55;;;;;;;;;;;;;;;26.32;32.47;95115.56;4914360;29;1317;-69
2023/02/02 01:48:22;;;;;;;;;;;;;;;26.33;32.57;95111.03;4914090;29;1486;-68
2023/02/02 01:50:49;;;;;;;;;;;;;;;26.32;32.56;95120.94;4917626;29;1423;-69
2023/02/02 01:53:16;;;;;;;;;;;;;;;26.33;32.85;95113.72;4932706;29;1962;-68
2023/02/02 01:55:41;;;;;;;;;;;;;;;26.30;32.71;95114.16;4934430;29;1328;-68
2023/02/02 01:58:06;;;;;;;;;;;;;;;26.31;32.75;95113.13;4921452;29;1387;-67
2023/02/02 02:00:32;;;;;;;;;;;;;;;26.31;32.55;95113.13;4919877;29;1408;-67
2023/02/02 02:02:59;;;;;;;;;;;;;;;26.33;32.73;95111.81;4949855;29;1411;-65
2023/02/02 02:05:30;;;;;;;;;;;;;;;26.34;32.58;95101.88;4937628;29;799;-65
2023/02/02 02:07:59;;;;;;;;;;;;;;;26.33;32.56;95106.44;4937328;29;1419;-65
2023/02/02 02:10:24;;;;;;;;;;;;;;;26.30;32.67;95096.16;4915307;29;1331;-64
2023/02/02 02:12:50;;;;;;;;;;;;;;;26.31;32.48;95097.78;4952078;29;1894;-66
2023/02/02 02:18:06;;;;;;;;;;;;;;;26.30;32.59;95104.25;4923277;29;1221;-64
2023/02/02 02:26:42;;;;;;;;;;;;;;;26.28;32.88;95110.91;4937444;29;1395;-67
2023/02/02 02:29:26;;;;;;;;;;;;;;;26.30;32.80;95116.84;4936871;29;1320;-67
2023/02/02 02:32:05;;;;;;;;;;;;;;;26.29;32.99;95109.84;4941762;29;1340;-65
2023/02/02 02:34:39;;;;;;;;;;;;;;;26.30;32.74;95109.63;4920176;29;1903;-67
2023/02/02 02:37:04;;;;;;;;;;;;;;;26.30;33.00;95108.78;4948831;29;1376;-67
2023/02/02 02:39:40;;;;;;;;;;;;;;;26.33;32.71;95103.75;4937041;29;818;-65
2023/02/02 02:42:15;;;;;;;;;;;;;;;26.33;32.93;95106.44;4936015;29;1352;-66
2023/02/02 02:44:41;;;;;;;;;;;;;;;26.34;32.68;95102.69;4929825;29;1427;-66
2023/02/02 02:47:07;;;;;;;;;;;;;;;26.35;32.58;95101.63;4936669;29;1506;-66
2023/02/02 02:49:40;;;;;;;;;;;;;;;26.35;32.79;95109.69;4936651;29;1558;-67
2023/02/02 02:52:06;;;;;;;;;;;;;;;26.34;32.85;95104.56;4934834;29;1431;-66
2023/02/02 02:54:34;;;;;;;;;;;;;;;26.35;32.49;95109.69;4928204;29;1915;-67
2023/02/02 02:57:02;;;;;;;;;;;;;;;26.36;32.54;95105.97;4936057;29;1375;-67
2023/02/02 02:59:44;;;;;;;;;;;;;;;26.37;32.40;95102.22;4933402;29;1376;-67
2023/02/02 03:02:18;;;;;;;;;;;;;;;26.37;32.66;95109.47;4917834;29;1510;-71
2023/02/02 03:04:54;;;;;;;;;;;;;;;26.38;32.72;95113.78;4917748;29;925;-71
2023/02/02 03:07:34;;;;;;;;;;;;;;;26.37;32.66;95112.16;4923021;29;1312;-70
2023/02/02 03:10:01;;;;;;;;;;;;;;;26.38;32.76;95098.47;4936042;29;1380;-70
2023/02/02 03:12:26;;;;;;;;;;;;;;;26.37;32.51;95110.28;4923170;29;1320;-70
2023/02/02 03:14:52;;;;;;;;;;;;;;;26.37;32.60;95098.72;4920742;29;1895;-70
2023/02/02 03:17:17;;;;;;;;;;;;;;;26.38;32.44;95100.34;4911141;29;1407;-70
2023/02/02 03:19:42;;;;;;;;;;;;;;;26.38;32.62;95108.41;4936292;29;1117;-71
2023/02/02 03:22:07;;;;;;;;;;;;;;;26.37;32.72;95102.22;4925223;29;1402;-70
2023/02/02 03:24:33;;;;;;;;;;;;;;;26.36;32.64;95099.78;4931825;29;1331;-69
2023/02/02 03:26:58;;;;;;;;;;;;;;;26.36;32.50;95102.47;4917406;29;1423;-70
2023/02/02 03:29:23;;;;;;;;;;;;;;;26.37;32.35;95096.84;4915169;29;1328;-70
2023/02/02 03:31:49;;;;;;;;;;;;;;;26.36;32.41;95095.22;4932810;29;1378;-69
2023/02/02 03:34:14;;;;;;;;;;;;;;;26.38;32.42;95103.03;4917116;29;1899;-69
2023/02/02 03:36:39;;;;;;;;;;;;;;;26.38;32.53;95100.34;4917169;29;1380;-68
2023/02/02 03:39:05;;;;;;;;;;;;;;;26.38;32.43;95108.41;4918363;29;1408;-69
2023/02/02 03:41:30;;;;;;;;;;;;;;;26.40;32.42;95109.00;4927947;29;1387;-69
2023/02/02 03:43:55;;;;;;;;;;;;;;;26.39;32.41;95110.06;4922491;29;1399;-69
2023/02/02 03:46:20;;;;;;;;;;;;;;;26.40;32.64;95111.69;4917029;29;1395;-69
2023/02/02 03:48:46;;;;;;;;;;;;;;;26.38;32.31;95108.41;4937653;29;1407;-69
2023/02/02 03:51:12;;;;;;;;;;;;;;;26.39;32.45;95113.56;4908477;29;1487;-69
2023/02/02 03:53:38;;;;;;;;;;;;;;;26.41;32.29;95113.31;4917851;29;1965;-69
2023/02/02 03:56:03;;;;;;;;;;;;;;;26.37;32.39;95121.03;4917328;29;795;-68
2023/02/02 03:58:29;;;;;;;;;;;;;;;26.38;32.20;95120.00;4915665;29;1436;-69
2023/02/02 04:00:58;;;;;;;;;;;;;;;26.35;32.58;95119.63;4931393;29;1418;-69
2023/02/02 04:03:23;;;;;;;;;;;;;;;26.38;32.33;95127.22;4907117;29;1478;-69
2023/02/02 04:05:49;;;;;;;;;;;;;;;26.45;33.07;95125.22;4941588;29;1372;-67
2023/02/02 04:08:14;;;;;;;;;;;;;;;26.50;31.98;95121.81;4930342;29;1395;-66
2023/02/02 04:10:41;;;;;;;;;;;;;;;26.32;32.04;95118.25;4937639;29;1411;-66
2023/02/02 04:13:06;;;;;;;;;;;;;;;26.28;32.36;95110.91;4916413;29;1960;-64
2023/02/02 04:15:31;;;;;;;;;;;;;;;24.73;28.78;95119.16;4909261;29;1273;-65
2023/02/02 04:17:57;;;;;;;;;;;;;;;23.97;29.62;95121.38;4928948;29;1427;-65
2023/02/02 04:20:22;;;;;;;;;;;;;;;23.48;29.84;95124.94;4919469;29;1395;-65
2023/02/02 04:22:47;;;;;;;;;;;;;;;23.15;29.75;95127.94;4922399;29;1593;-65
2023/02/02 04:25:13;;;;;;;;;;;;;;;22.95;29.53;95133.41;4929209;29;1401;-65
2023/02/02 04:27:38;;;;;;;;;;;;;;;22.74;29.50;95131.88;4928591;29;1336;-65
2023/02/02 04:30:04;;;;;;;;;;;;;;;22.52;29.34;95134.91;4924222;29;1395;-65
2023/02/02 04:32:29;;;;;;;;;;;;;;;22.47;28.83;95131.25;4931635;29;1415;-65
2023/02/02 04:34:55;;;;;;;;;;;;;;;22.34;28.79;95132.13;4923801;29;1906;-65
2023/02/02 04:37:20;;;;;;;;;;;;;;;22.24;28.68;95137.94;4929397;29;1253;-65
2023/02/02 04:39:46;;;;;;;;;;;;;;;22.10;28.77;95145.16;4949361;29;1455;-65
2023/02/02 04:42:12;;;;;;;;;;;;;;;22.06;28.45;95129.75;4920191;29;897;-65
2023/02/02 04:44:37;;;;;;;;;;;;;;;21.99;28.50;95124.44;4920187;29;827;-65
2023/02/02 04:47:02;;;;;;;;;;;;;;;21.91;28.26;95130.00;4920123;29;882;-65
2023/02/02 04:49:27;;;;;;;;;;;;;;;21.87;27.95;95139.50;4914859;29;1400;-65
2023/02/02 04:51:53;;;;;;;;;;;;;;;21.81;27.85;95148.34;4951354;29;1469;-65
2023/02/02 04:54:18;;;;;;;;;;;;;;;21.70;27.72;95147.94;4921906;29;1964;-65
2023/02/02 04:56:43;;;;;;;;;;;;;;;21.46;25.03;95144.09;4936991;29;1507;-65
2023/02/02 04:59:09;;;;;;;;;;;;;;;20.43;24.78;95155.06;4928851;29;1430;-72
2023/02/02 05:01:34;;;;;;;;;;;;;;;19.79;24.12;95134.09;4917125;29;1466;-71
2023/02/02 05:03:59;;;;;;;;;;;;;;;20.61;26.27;95146.50;4937075;29;1316;-65
2023/02/02 05:06:24;;;;;;;;;;;;;;;21.53;26.63;95136.91;4932992;29;1319;-65
2023/02/02 05:08:50;;;;;;;;;;;;;;;22.27;26.50;95147.38;4936984;29;1478;-65
2023/02/02 05:11:17;;;;;;;;;;;;;;;22.75;26.28;95147.72;4928657;29;1292;-65
2023/02/02 05:13:49;;;;;;;;;;;;;;;23.16;26.50;95142.94;4930440;29;1965;-71
2023/02/02 05:16:14;;;;;;;;;;;;;;;23.44;26.41;95142.50;4925471;29;1545;-66
2023/02/02 05:18:47;;;;;;;;;;;;;;;23.03;25.26;95142.00;4936291;29;1408;-69
2023/02/02 05:21:12;;;;;;;;;;;;;;;23.29;26.65;95143.66;4935132;29;1356;-65
2023/02/02 05:23:37;;;;;;;;;;;;;;;23.54;26.47;95149.00;4910711;29;1021;-65
2023/02/02 05:26:03;;;;;;;;;;;;;;;23.70;26.37;95152.13;4929400;29;1276;-66
2023/02/02 05:28:28;;;;;;;;;;;;;;;23.80;26.47;95152.47;4927188;29;1476;-65
2023/02/02 05:30:53;;;;;;;;;;;;;;;23.86;26.55;95140.06;4924818;29;1552;-65
2023/02/02 05:33:19;;;;;;;;;;;;;;;23.92;26.37;95134.59;4929327;29;1906;-65
2023/02/02 05:35:44;;;;;;;;;;;;;;;23.98;26.48;95144.44;4927628;29;1352;-65
2023/02/02 05:38:10;;;;;;;;;;;;;;;24.04;26.80;95147.25;4929882;29;1173;-66
2023/02/02 05:40:35;;;;;;;;;;;;;;;24.08;26.75;95151.97;4928452;29;1432;-66
2023/02/02 05:43:00;;;;;;;;;;;;;;;24.11;26.63;95158.75;4936626;29;1355;-66
2023/02/02 05:45:25;;;;;;;;;;;;;;;24.15;26.73;95166.09;4928207;29;1194;-65
2023/02/02 05:47:52;;;;;;;;;;;;;;;24.16;26.95;95154.34;4938294;29;887;-66
2023/02/02 05:50:18;;;;;;;;;;;;;;;24.19;26.96;95166.47;4938040;29;933;-66
2023/02/02 05:52:43;;;;;;;;;;;;;;;24.22;26.73;95161.50;4938006;29;874;-66
2023/02/02 05:55:09;;;;;;;;;;;;;;;24.24;27.08;95174.66;4937993;29;1918;-66
2023/02/02 05:57:34;;;;;;;;;;;;;;;24.25;27.10;95168.25;4928105;29;1236;-66
2023/02/02 05:59:59;;;;;;;;;;;;;;;24.25;27.03;95165.59;4937852;29;981;-66
2023/02/02 06:02:25;;;;;;;;;;;;;;;24.28;27.26;95165.13;4938118;29;920;-66
2023/02/02 06:04:50;;;;;;;;;;;;;;;24.29;27.15;95164.06;4937769;29;890;-66
2023/02/02 06:07:15;;;;;;;;;;;;;;;24.29;27.25;95161.41;4932805;29;1148;-66
2023/02/02 06:09:40;;;;;;;;;;;;;;;24.31;27.21;95167.34;4932691;29;1094;-65
2023/02/02 06:12:06;;;;;;;;;;;;;;;24.33;27.28;95167.13;4937560;29;869;-66
2023/02/02 06:14:31;;;;;;;;;;;;;;;24.36;27.43;95161.31;4937436;29;1966;-66
2023/02/02 06:16:57;;;;;;;;;;;;;;;24.39;27.43;95184.97;4937408;29;870;-66
2023/02/02 06:19:22;;;;;;;;;;;;;;;24.39;27.44;95184.97;4927503;29;968;-65
2023/02/02 06:21:47;;;;;;;;;;;;;;;24.39;27.48;95174.25;4937362;29;798;-64
2023/02/02 06:24:12;;;;;;;;;;;;;;;24.40;27.23;95184.78;4937514;29;841;-65
2023/02/02 06:26:38;;;;;;;;;;;;;;;24.42;27.65;95197.97;4937188;29;840;-64
2023/02/02 06:29:03;;;;;;;;;;;;;;;24.43;27.43;95196.94;4937179;29;838;-66
2023/02/02 06:31:28;;;;;;;;;;;;;;;24.44;27.62;95196.72;4927271;29;986;-65
2023/02/02 06:33:55;;;;;;;;;;;;;;;24.45;27.63;95201.03;4937017;29;1977;-65
2023/02/02 06:36:21;;;;;;;;;;;;;;;24.47;27.62;95208.84;4937253;29;866;-65
2023/02/02 06:38:50;;;;;;;;;;;;;;;24.46;27.62;95210.72;4936927;29;798;-65
2023/02/02 06:41:15;;;;;;;;;;;;;;;24.48;27.51;95206.97;4931818;29;1218;-65
2023/02/02 06:43:40;;;;;;;;;;;;;;;24.48;27.55;95202.47;4932103;29;1071;-65
2023/02/02 06:46:06;;;;;;;;;;;;;;;24.50;27.56;95210.25;4936807;29;803;-65
2023/02/02 06:48:31;;;;;;;;;;;;;;;24.51;27.79;95219.97;4936712;29;1002;-65
2023/02/02 06:50:57;;;;;;;;;;;;;;;24.50;27.78;95216.44;4936152;29;812;-65
2023/02/02 06:53:23;;;;;;;;;;;;;;;24.51;27.69;95206.56;4926766;29;1915;-66
2023/02/02 06:55:52;;;;;;;;;;;;;;;24.51;27.61;95204.69;4936622;29;952;-66
2023/02/02 06:58:17;;;;;;;;;;;;;;;24.53;27.67;95204.44;4936609;29;925;-65
2023/02/02 07:00:42;;;;;;;;;;;;;;;24.52;27.66;95225.09;4936640;29;873;-66
2023/02/02 07:03:08;;;;;;;;;;;;;;;24.52;27.78;95219.72;4936749;29;873;-66
2023/02/02 07:05:33;;;;;;;;;;;;;;;24.52;27.75;95227.78;4926912;29;951;-66
2023/02/02 07:07:58;;;;;;;;;;;;;;;24.54;27.88;95227.56;4936559;29;826;-66
2023/02/02 07:10:24;;;;;;;;;;;;;;;24.54;27.84;95224.88;4936550;29;915;-66
2023/02/02 07:12:49;;;;;;;;;;;;;;;24.57;27.65;95243.19;4936441;29;979;-66
2023/02/02 07:15:14;;;;;;;;;;;;;;;24.57;27.76;95227.09;4931617;29;1962;-66
2023/02/02 07:17:40;;;;;;;;;;;;;;;24.58;27.79;95228.75;4931269;29;1136;-66
2023/02/02 07:20:05;;;;;;;;;;;;;;;24.57;27.98;95227.09;4936409;29;873;-66
2023/02/02 07:22:30;;;;;;;;;;;;;;;24.57;27.81;95211.81;4936712;29;855;-65
2023/02/02 07:24:56;;;;;;;;;;;;;;;24.57;27.83;95224.44;4936299;29;793;-66
2023/02/02 07:27:21;;;;;;;;;;;;;;;24.59;28.02;95225.00;4926390;29;1047;-66
2023/02/02 07:29:46;;;;;;;;;;;;;;;24.60;27.95;95235.53;4936230;29;886;-66
2023/02/02 07:32:12;;;;;;;;;;;;;;;24.59;27.83;95219.63;4950883;29;1274;-66
2023/02/02 07:34:38;;;;;;;;;;;;;;;24.59;27.97;95235.72;4934941;29;1909;-68
2023/02/02 07:37:03;;;;;;;;;;;;;;;24.60;27.87;95237.38;4936298;29;815;-66
2023/02/02 07:39:28;;;;;;;;;;;;;;;24.60;27.91;95232.84;4926250;29;1076;-65
2023/02/02 07:41:54;;;;;;;;;;;;;;;24.61;28.07;95233.66;4935744;29;1279;-65
2023/02/02 07:44:19;;;;;;;;;;;;;;;24.62;27.88;95246.03;4935933;29;898;-65
2023/02/02 07:46:46;;;;;;;;;;;;;;;24.64;27.80;95238.56;4950626;29;1363;-66
2023/02/02 07:49:13;;;;;;;;;;;;;;;24.65;28.09;95224.13;4931274;29;957;-66
2023/02/02 07:51:38;;;;;;;;;;;;;;;24.65;27.99;95219.56;4930904;29;1160;-66
2023/02/02 07:54:03;;;;;;;;;;;;;;;24.65;28.05;95208.03;4935843;29;1907;-65
2023/02/02 07:56:29;;;;;;;;;;;;;;;24.67;28.11;95208.59;4935940;29;885;-67
2023/02/02 07:58:54;;;;;;;;;;;;;;;24.70;27.92;95200.09;4935877;29;806;-65
2023/02/02 08:01:21;;;;;;;;;;;;;;;24.72;27.91;95191.84;4925831;29;1090;-64
2023/02/02 08:03:47;;;;;;;;;;;;;;;24.74;28.07;95193.25;4935435;29;1282;-65
2023/02/02 08:06:14;;;;;;;;;;;;;;;24.78;28.06;95197.09;4935667;29;850;-66
2023/02/02 08:08:39;;;;;;;;;;;;;;;24.82;27.85;95202.84;4935606;29;897;-66
2023/02/02 08:11:06;;;;;;;;;;;;;;;24.85;27.84;95189.78;4935667;29;960;-66
2023/02/02 08:13:32;;;;;;;;;;;;;;;24.88;27.84;95197.38;4924536;29;1907;-65
2023/02/02 08:15:57;;;;;;;;;;;;;;;24.91;27.81;95186.19;4950277;29;879;-66
2023/02/02 08:18:22;;;;;;;;;;;;;;;24.94;27.91;95184.09;4935664;29;917;-65
2023/02/02 08:20:48;;;;;;;;;;;;;;;24.96;28.01;95177.47;4935812;29;830;-65
2023/02/02 08:23:15;;;;;;;;;;;;;;;24.98;27.96;95177.22;4945548;29;1316;-65
2023/02/02 08:25:41;;;;;;;;;;;;;;;24.99;27.89;95174.31;4930419;29;1171;-65
2023/02/02 08:28:06;;;;;;;;;;;;;;;25.00;27.93;95184.00;4935440;29;850;-65
2023/02/02 08:30:31;;;;;;;;;;;;;;;25.01;27.87;95168.69;4935417;29;972;-65
2023/02/02 08:32:56;;;;;;;;;;;;;;;25.02;27.66;95173.03;4935327;29;1898;-66
2023/02/02 08:35:22;;;;;;;;;;;;;;;25.04;27.74;95166.38;4940181;29;1297;-65
2023/02/02 08:37:48;;;;;;;;;;;;;;;25.06;27.97;95172.34;4935177;29;1140;-65
2023/02/02 08:40:13;;;;;;;;;;;;;;;25.08;28.09;95170.25;4934954;29;1347;-65
2023/02/02 08:42:38;;;;;;;;;;;;;;;25.10;27.90;95170.00;4949938;29;889;-65
2023/02/02 08:45:04;;;;;;;;;;;;;;;25.11;27.92;95161.72;4935311;29;901;-66
2023/02/02 08:47:29;;;;;;;;;;;;;;;25.12;27.82;95159.84;4925355;29;1089;-66
2023/02/02 08:49:55;;;;;;;;;;;;;;;25.12;27.63;95157.19;4935261;29;826;-66
2023/02/02 08:52:20;;;;;;;;;;;;;;;25.13;27.79;95158.81;4935343;29;905;-66
2023/02/02 08:54:45;;;;;;;;;;;;;;;25.14;27.90;95160.50;4935187;29;1985;-66
2023/02/02 08:57:10;;;;;;;;;;;;;;;25.15;27.75;95166.66;4931660;29;804;-66
2023/02/02 08:59:36;;;;;;;;;;;;;;;25.14;27.89;95168.53;4927467;29;1238;-66
2023/02/02 09:02:01;;;;;;;;;;;;;;;25.14;27.86;95163.19;4935114;29;932;-66
2023/02/02 09:04:26;;;;;;;;;;;;;;;25.13;27.92;95158.81;4935084;29;921;-66
2023/02/02 09:06:52;;;;;;;;;;;;;;;25.12;27.71;95149.13;4935438;29;877;-66
2023/02/02 09:09:17;;;;;;;;;;;;;;;25.11;27.81;95156.38;4925732;29;1090;-66
2023/02/02 09:11:43;;;;;;;;;;;;;;;25.10;27.99;95157.44;4934872;29;1048;-66
2023/02/02 09:14:09;;;;;;;;;;;;;;;25.09;27.83;95149.59;4951141;28;1968;-65
2023/02/02 09:16:34;;;;;;;;;;;;;;;25.09;27.82;95158.44;4938785;29;863;-66
2023/02/02 09:19:00;;;;;;;;;;;;;;;25.09;28.03;95146.91;4938458;29;834;-66
2023/02/02 09:21:25;;;;;;;;;;;;;;;25.09;27.97;95145.03;4928643;29;1073;-66
2023/02/02 09:23:52;;;;;;;;;;;;;;;25.09;28.07;95142.34;4938420;29;999;-66
2023/02/02 09:26:17;;;;;;;;;;;;;;;25.08;28.03;95146.09;4938355;29;822;-66
2023/02/02 09:28:47;;;;;;;;;;;;;;;25.07;27.86;95143.63;4938435;29;822;-66
2023/02/02 09:31:13;;;;;;;;;;;;;;;25.07;27.96;95140.94;4935757;29;862;-67
2023/02/02 09:33:38;;;;;;;;;;;;;;;25.08;27.92;95131.84;4931079;29;1968;-66
2023/02/02 09:36:11;;;;;;;;;;;;;;;25.08;27.90;95143.41;4938159;29;814;-66
2023/02/02 09:38:37;;;;;;;;;;;;;;;25.09;28.19;95128.13;4938196;29;1012;-66
2023/02/02 09:41:21;;;;;;;;;;;;;;;25.09;27.99;95128.13;4937789;29;1285;-66
2023/02/02 09:43:46;;;;;;;;;;;;;;;25.08;28.08;95121.13;4928135;29;1086;-65
2023/02/02 09:46:15;;;;;;;;;;;;;;;25.08;27.95;95116.56;4938081;29;906;-66
2023/02/02 09:48:50;;;;;;;;;;;;;;;25.08;27.99;95123.81;4938084;29;944;-66
2023/02/02 09:51:18;;;;;;;;;;;;;;;25.09;28.00;95133.47;4938250;29;787;-66
2023/02/02 09:53:59;;;;;;;;;;;;;;;25.10;27.98;95113.63;4937792;29;1915;-66
2023/02/02 09:56:25;;;;;;;;;;;;;;;25.10;27.82;95116.31;4931945;29;1016;-66
2023/02/02 09:58:54;;;;;;;;;;;;;;;25.10;28.08;95098.38;4937814;29;950;-66
2023/02/02 10:01:37;;;;;;;;;;;;;;;25.11;27.94;95104.53;4937803;29;838;-66
2023/02/02 10:04:23;;;;;;;;;;;;;;;25.11;27.90;95091.13;4937692;29;897;-66
2023/02/02 10:06:52;;;;;;;;;;;;;;;25.11;28.10;95083.06;4927439;29;1051;-66
2023/02/02 10:09:18;;;;;;;;;;;;;;;25.12;27.87;95079.31;4937571;29;923;-65
2023/02/02 10:11:48;;;;;;;;;;;;;;;25.12;27.95;95090.88;4937515;29;854;-66
2023/02/02 10:14:26;;;;;;;;;;;;;;;25.11;27.98;95083.88;4937329;29;1906;-66
2023/02/02 10:16:53;;;;;;;;;;;;;;;25.11;27.92;95077.69;4932766;29;1091;-66
2023/02/02 10:19:19;;;;;;;;;;;;;;;25.12;27.98;95084.69;4932265;29;1133;-65
2023/02/02 10:21:47;;;;;;;;;;;;;;;25.11;28.03;95077.69;4951936;29;1419;-65
2023/02/02 10:24:23;;;;;;;;;;;;;;;25.09;28.00;95074.41;4937244;29;807;-65
2023/02/02 10:26:51;;;;;;;;;;;;;;;25.10;27.98;95062.63;4937336;29;853;-65
2023/02/02 10:29:17;;;;;;;;;;;;;;;25.09;27.93;95064.50;4927444;29;1100;-66
2023/02/02 10:31:43;;;;;;;;;;;;;;;25.09;28.06;95052.94;4936248;29;1294;-66
2023/02/02 10:34:16;;;;;;;;;;;;;;;25.10;27.79;95065.31;4951842;29;1969;-67
2023/02/02 10:36:46;;;;;;;;;;;;;;;25.07;28.02;95058.56;4935806;29;1266;-66
2023/02/02 10:39:20;;;;;;;;;;;;;;;25.07;27.96;95063.94;4937102;29;950;-66
2023/02/02 10:42:03;;;;;;;;;;;;;;;25.07;28.12;95047.00;4928626;29;1250;-66
2023/02/02 10:44:35;;;;;;;;;;;;;;;25.07;28.12;95036.25;4937065;29;866;-66
2023/02/02 10:47:03;;;;;;;;;;;;;;;25.05;28.12;95033.81;4951359;29;1307;-66
2023/02/02 10:49:32;;;;;;;;;;;;;;;25.05;28.14;95025.75;4936955;29;885;-66
2023/02/02 10:51:58;;;;;;;;;;;;;;;25.05;28.28;95014.22;4927257;29;1178;-66
2023/02/02 10:54:42;;;;;;;;;;;;;;;25.07;28.03;95006.72;4936779;29;1976;-66
2023/02/02 10:57:10;;;;;;;;;;;;;;;25.06;28.00;95011.28;4951474;29;1357;-66
2023/02/02 10:59:40;;;;;;;;;;;;;;;25.06;28.06;94997.84;4936684;29;857;-66
2023/02/02 11:02:11;;;;;;;;;;;;;;;25.05;27.92;95000.78;4934325;29;806;-66
2023/02/02 11:07:20;;;;;;;;;;;;;;;25.03;28.26;94995.66;4936518;29;640;-66
2023/02/02 11:09:46;;;;;;;;;;;;;;;25.04;28.11;94991.09;4936474;29;945;-66
2023/02/02 11:12:29;;;;;;;;;;;;;;;25.04;27.98;94991.91;4936740;29;877;-66
2023/02/02 11:15:00;;;;;;;;;;;;;;;25.04;28.23;94977.66;4941334;28;1978;-67
2023/02/02 11:17:26;;;;;;;;;;;;;;;25.05;28.17;94990.88;4954273;29;854;-66
2023/02/02 11:19:54;;;;;;;;;;;;;;;25.04;28.11;94974.97;4955514;29;877;-66
2023/02/02 11:22:37;;;;;;;;;;;;;;;25.05;28.23;94973.94;4955563;29;943;-66
2023/02/02 11:25:25;;;;;;;;;;;;;;;25.02;28.05;94961.81;4950813;29;1060;-66
2023/02/02 11:27:51;;;;;;;;;;;;;;;25.04;28.24;94966.94;4946195;29;1156;-66
2023/02/02 11:30:20;;;;;;;;;;;;;;;25.04;28.10;94958.88;4955633;29;884;-66
2023/02/02 11:32:48;;;;;;;;;;;;;;;25.05;28.06;94947.13;4955312;29;814;-66
2023/02/02 11:35:16;;;;;;;;;;;;;;;25.05;27.96;94949.78;4969963;28;1968;-66
2023/02/02 11:38:02;;;;;;;;;;;;;;;25.05;28.11;94947.91;4944928;28;1122;-65
2023/02/02 11:40:29;;;;;;;;;;;;;;;25.03;28.37;94941.97;4943570;29;1456;-66
2023/02/02 11:42:56;;;;;;;;;;;;;;;25.04;28.27;94937.41;4955127;29;792;-65
2023/02/02 11:45:29;;;;;;;;;;;;;;;25.05;28.37;94939.06;4955176;29;980;-67
2023/02/02 11:47:59;;;;;;;;;;;;;;;25.04;28.15;94926.66;4950400;29;980;-65
2023/02/02 11:50:26;;;;;;;;;;;;;;;25.04;28.33;94937.41;4950124;29;1191;-66
2023/02/02 11:52:52;;;;;;;;;;;;;;;25.04;28.28;94942.78;4955026;29;889;-65
2023/02/02 11:55:24;;;;;;;;;;;;;;;25.04;28.14;94926.66;4955112;29;1910;-67
2023/02/02 11:58:08;;;;;;;;;;;;;;;25.04;28.23;94926.66;4955332;29;893;-66
2023/02/02 12:00:34;;;;;;;;;;;;;;;25.03;28.23;94922.38;4945214;29;1039;-66
2023/02/02 12:02:59;;;;;;;;;;;;;;;25.02;28.09;94913.50;4954944;29;912;-66
2023/02/02 12:05:24;;;;;;;;;;;;;;;25.02;28.26;94915.38;4955001;29;905;-67
2023/02/02 12:07:49;;;;;;;;;;;;;;;25.01;28.12;94898.44;4954971;29;873;-66
2023/02/02 12:10:18;;;;;;;;;;;;;;;25.01;28.34;94900.31;4967422;28;1204;-66
2023/02/02 12:12:49;;;;;;;;;;;;;;;25.02;28.24;94893.91;4947413;28;1328;-66
2023/02/02 12:15:23;;;;;;;;;;;;;;;25.01;28.21;94903.81;4954848;29;1966;-66
2023/02/02 12:17:51;;;;;;;;;;;;;;;25.01;28.33;94900.31;4955259;29;853;-66
2023/02/02 12:20:19;;;;;;;;;;;;;;;25.01;28.13;94906.47;4955087;29;874;-65
2023/02/02 12:22:44;;;;;;;;;;;;;;;25.00;28.22;94904.84;4945155;29;1073;-66
2023/02/02 12:25:13;;;;;;;;;;;;;;;25.01;28.17;94892.25;4954823;29;826;-66
2023/02/02 12:27:38;;;;;;;;;;;;;;;25.00;28.25;94887.94;4955009;29;991;-65
2023/02/02 12:30:16;;;;;;;;;;;;;;;24.99;28.18;94903.25;4955069;29;877;-66
2023/02/02 12:32:41;;;;;;;;;;;;;;;25.00;28.08;94904.06;4954867;29;802;-65
2023/02/02 12:35:20;;;;;;;;;;;;;;;24.97;28.08;94905.34;4944837;29;1967;-66
2023/02/02 12:37:57;;;;;;;;;;;;;;;24.98;28.37;94911.50;4954686;29;861;-65
2023/02/02 12:40:33;;;;;;;;;;;;;;;24.97;28.39;94909.88;4954443;29;1489;-65
2023/02/02 12:43:05;;;;;;;;;;;;;;;24.96;28.25;94910.91;4954681;29;814;-65
2023/02/02 12:45:37;;;;;;;;;;;;;;;24.95;28.42;94912.00;4944614;29;1072;-66
2023/02/02 12:48:11;;;;;;;;;;;;;;;24.94;28.29;94899.63;4953223;28;1304;-66
2023/02/02 12:50:55;;;;;;;;;;;;;;;24.95;28.28;94906.63;4958422;29;909;-65
2023/02/02 12:53:39;;;;;;;;;;;;;;;24.94;28.32;94899.63;4958405;29;1907;-67
2023/02/02 12:56:19;;;;;;;;;;;;;;;24.94;28.44;94902.31;4953488;29;997;-66
2023/02/02 12:59:00;;;;;;;;;;;;;;;24.94;28.51;94915.72;4955054;28;1150;-67
2023/02/02 13:01:31;;;;;;;;;;;;;;;24.94;28.51;94913.03;4958435;29;799;-66
2023/02/02 13:04:29;;;;;;;;;;;;;;;24.95;28.30;94912.00;4958071;29;854;-66
2023/02/02 13:07:06;;;;;;;;;;;;;;;24.94;28.16;94910.38;4936077;29;1276;-66
2023/02/02 13:09:50;;;;;;;;;;;;;;;24.93;28.33;94904.16;4952036;29;1112;-66
2023/02/02 13:12:17;;;;;;;;;;;;;;;24.91;28.43;94899.03;4958304;29;914;-67
2023/02/02 13:14:48;;;;;;;;;;;;;;;24.92;28.17;94903.34;4957812;29;1891;-67
2023/02/02 13:17:13;;;;;;;;;;;;;;;24.91;28.37;94899.03;4957917;29;933;-67